Main page
METAR-TAF:

METAR-TAF

Airports :

Nouakchott–Oumtounsy International Airport

Nouakchott, Mauritania

latitude: 18-18-36N, longitude: 015-58-11W, elevation: 3 m

Current weather observation

The report was made 35 minutes ago, at 21:30 UTC
Wind 14 kt from the Northwest
Temperature 19°C
Humidity 88%
Pressure 1016 hPa
Visibility: 8000 m

METAR: GQNO 172130Z 32014KT 8000 NSC 19/17 Q1016 NOSIG

Time: 22:05 (22:05 UTC)

Forecast

The report was made 5 hours and 5 minutes ago, at 17:00 UTC
Forecast valid from 17 at 18 UTC to 18 at 24 UTC
Wind 14 kt from the Northwest
Visibility: 8000 m

TAF: GQNO 171700Z 1718/1824 32014KT 8000 NSC

Weather observations and forecasts of more than 4000 airports (METAR and TAF reports).

The available stations are represented by yellow and red dots on the map.

Hover mouse over dot to see the name of the station.

Then click to see weather observations and forecasts.

To change the map : click on the green buttons with a black cross to zoom in, on the green button with a dash to zoom out, or on the green arrows for adjacent maps.


METAR-TAF: